TAF MPPA
AMD MPPA 080300Z 0800/0906 CNL=
METAR MPPA
MPPA 080300Z 00000KT 9999 FEW018 25/24 Q1010=
MPPA 080200Z 02005KT 9999 FEW018 25/24 Q1009=
MPPA 080100Z 02004KT 9999 SCT017 25/24 Q1009=
MPPA 072300Z VRB02KT 9999 SCT017 26/25 Q1007=
MPPA 072200Z 35003KT 9999 SCT017CB 27/26 Q1007 RERA RWY DAMP=
WC MPPA
WS MPPA
WV MPPA